Upper Allen, Pennsylvania
Current Conditions -  °F | °C
As of 12:56 AM on Tuesday 27 Jan 2015 (Local Time) from KCXY Reporting Station
Overcast Overcast  
Wind Chill: -8°   Ceiling: 2300
Heat Index: -3°   Visibility: 10mi
Dew Point: -6°   Wind: 8mph
Humidity: 81%   Direction: 320°NW
Pressure: 29.77"   Gusts: NA
Location:  40.208°N, 77.0098°W
Report Text: KCXY 270556Z AUTO 32007KT 10SM OVC023 M03/M06 A2977 RMK AO2 SNB15E36 SLP087 P0000 60000 T10331061 11028 21039 56010
Loading
Personal Weather Stations






























Interactive Weather Map New forecast layout! Learn more

10-Day Weather Forecast

Advertisements
Track Severe Weather on mobile